Nampa, Canada
Current Conditions -  °F | °C
As of 2:47 AM on Friday 28 Nov 2014 (Local Time) from CYPE Reporting Station
Light Snow Light Snow  
Wind Chill: -30°   Ceiling: 2000
Heat Index: -8°   Visibility: 2mi
Dew Point: -13°   Wind: 17mph
Humidity: 77%   Direction: 10°N
Pressure: 30.08"   Gusts: 23mph
Location:  56.03°N, 117.12°W
Report Text: CYPE 280947Z 01015G20KT 2SM -SN DRSN OVC020 M22/M25 A3008 RMK SC8 SLP247
Loading
Personal Weather Stations






























Interactive Weather Map New forecast layout! Learn more

10-Day Weather Forecast

Advertisements
Track Severe Weather on mobile